sensor_id;sensor_type;location;lat;lon;timestamp;P1;durP1;ratioP1;P2;durP2;ratioP2
795;SDS011;381;48.770;9.188;2023-08-24T00:04:04;6.17;;;5.67;;
795;SDS011;381;48.770;9.188;2023-08-24T00:09:07;6.80;;;6.30;;
795;SDS011;381;48.770;9.188;2023-08-24T00:14:09;7.27;;;6.03;;
795;SDS011;381;48.770;9.188;2023-08-24T00:19:11;6.47;;;5.90;;
795;SDS011;381;48.770;9.188;2023-08-24T00:24:15;7.00;;;6.00;;
795;SDS011;381;48.770;9.188;2023-08-24T00:29:17;6.50;;;6.00;;
795;SDS011;381;48.770;9.188;2023-08-24T00:34:19;6.13;;;5.73;;
795;SDS011;381;48.770;9.188;2023-08-24T00:39:22;6.40;;;5.90;;
795;SDS011;381;48.770;9.188;2023-08-24T00:44:24;6.57;;;5.97;;
795;SDS011;381;48.770;9.188;2023-08-24T00:49:26;6.60;;;6.20;;
795;SDS011;381;48.770;9.188;2023-08-24T00:54:30;5.90;;;5.50;;
795;SDS011;381;48.770;9.188;2023-08-24T00:59:33;6.73;;;6.17;;
795;SDS011;381;48.770;9.188;2023-08-24T01:04:36;6.90;;;6.30;;
795;SDS011;381;48.770;9.188;2023-08-24T01:09:39;6.37;;;5.77;;
795;SDS011;381;48.770;9.188;2023-08-24T01:14:44;6.63;;;6.17;;
795;SDS011;381;48.770;9.188;2023-08-24T01:19:52;6.70;;;6.10;;
795;SDS011;381;48.770;9.188;2023-08-24T01:24:59;6.67;;;6.17;;
795;SDS011;381;48.770;9.188;2023-08-24T01:30:09;6.53;;;6.03;;
795;SDS011;381;48.770;9.188;2023-08-24T01:35:12;7.13;;;6.53;;
795;SDS011;381;48.770;9.188;2023-08-24T01:40:16;6.70;;;6.20;;
795;SDS011;381;48.770;9.188;2023-08-24T01:45:24;6.90;;;6.30;;
795;SDS011;381;48.770;9.188;2023-08-24T01:50:29;6.20;;;5.70;;
795;SDS011;381;48.770;9.188;2023-08-24T01:55:32;6.07;;;5.57;;
795;SDS011;381;48.770;9.188;2023-08-24T02:00:36;6.87;;;6.37;;
795;SDS011;381;48.770;9.188;2023-08-24T02:05:38;7.30;;;6.67;;
795;SDS011;381;48.770;9.188;2023-08-24T02:10:40;6.57;;;6.07;;
795;SDS011;381;48.770;9.188;2023-08-24T02:15:43;6.20;;;5.90;;
795;SDS011;381;48.770;9.188;2023-08-24T02:20:46;7.43;;;6.93;;
795;SDS011;381;48.770;9.188;2023-08-24T02:25:48;7.73;;;7.20;;
795;SDS011;381;48.770;9.188;2023-08-24T02:30:51;8.03;;;7.27;;
795;SDS011;381;48.770;9.188;2023-08-24T02:35:54;7.07;;;6.60;;
795;SDS011;381;48.770;9.188;2023-08-24T02:41:00;7.73;;;7.20;;
795;SDS011;381;48.770;9.188;2023-08-24T02:46:08;7.00;;;6.50;;
795;SDS011;381;48.770;9.188;2023-08-24T02:51:11;7.43;;;6.80;;
795;SDS011;381;48.770;9.188;2023-08-24T02:56:13;8.27;;;7.60;;
795;SDS011;381;48.770;9.188;2023-08-24T03:01:16;7.30;;;6.80;;
795;SDS011;381;48.770;9.188;2023-08-24T03:06:18;7.10;;;6.60;;
795;SDS011;381;48.770;9.188;2023-08-24T03:11:21;8.17;;;6.77;;
795;SDS011;381;48.770;9.188;2023-08-24T03:16:24;7.40;;;6.90;;
795;SDS011;381;48.770;9.188;2023-08-24T03:21:27;7.73;;;7.10;;
795;SDS011;381;48.770;9.188;2023-08-24T03:26:31;7.40;;;6.90;;
795;SDS011;381;48.770;9.188;2023-08-24T03:31:34;7.63;;;7.03;;
795;SDS011;381;48.770;9.188;2023-08-24T03:36:36;8.13;;;7.43;;
795;SDS011;381;48.770;9.188;2023-08-24T03:41:39;8.57;;;7.87;;
795;SDS011;381;48.770;9.188;2023-08-24T03:46:42;8.80;;;8.10;;
795;SDS011;381;48.770;9.188;2023-08-24T03:51:44;7.37;;;6.67;;
795;SDS011;381;48.770;9.188;2023-08-24T03:56:46;8.23;;;7.37;;
795;SDS011;381;48.770;9.188;2023-08-24T04:01:50;9.30;;;7.70;;
795;SDS011;381;48.770;9.188;2023-08-24T04:06:52;6.90;;;6.43;;
795;SDS011;381;48.770;9.188;2023-08-24T04:11:56;7.90;;;7.20;;
795;SDS011;381;48.770;9.188;2023-08-24T04:16:59;7.67;;;6.93;;
795;SDS011;381;48.770;9.188;2023-08-24T04:22:01;8.60;;;7.97;;
795;SDS011;381;48.770;9.188;2023-08-24T04:27:03;8.07;;;7.43;;
795;SDS011;381;48.770;9.188;2023-08-24T04:32:08;8.13;;;7.33;;
795;SDS011;381;48.770;9.188;2023-08-24T04:37:10;8.20;;;7.60;;
795;SDS011;381;48.770;9.188;2023-08-24T04:42:12;7.77;;;7.17;;
795;SDS011;381;48.770;9.188;2023-08-24T04:47:15;8.07;;;7.40;;
795;SDS011;381;48.770;9.188;2023-08-24T04:52:17;7.70;;;7.10;;
795;SDS011;381;48.770;9.188;2023-08-24T04:57:19;7.83;;;7.23;;
795;SDS011;381;48.770;9.188;2023-08-24T05:02:23;6.83;;;6.43;;
795;SDS011;381;48.770;9.188;2023-08-24T05:07:25;9.37;;;7.90;;
795;SDS011;381;48.770;9.188;2023-08-24T05:12:27;7.60;;;7.00;;
795;SDS011;381;48.770;9.188;2023-08-24T05:17:31;8.77;;;7.33;;
795;SDS011;381;48.770;9.188;2023-08-24T05:22:33;7.30;;;6.63;;
795;SDS011;381;48.770;9.188;2023-08-24T05:27:35;7.20;;;6.50;;
795;SDS011;381;48.770;9.188;2023-08-24T05:32:39;7.80;;;7.13;;
795;SDS011;381;48.770;9.188;2023-08-24T05:37:42;7.50;;;6.80;;
795;SDS011;381;48.770;9.188;2023-08-24T05:42:44;6.83;;;6.20;;
795;SDS011;381;48.770;9.188;2023-08-24T05:47:47;7.37;;;6.80;;
795;SDS011;381;48.770;9.188;2023-08-24T05:52:49;7.43;;;6.70;;
795;SDS011;381;48.770;9.188;2023-08-24T05:57:51;6.33;;;5.73;;
795;SDS011;381;48.770;9.188;2023-08-24T06:02:55;7.10;;;6.53;;
795;SDS011;381;48.770;9.188;2023-08-24T06:07:57;7.30;;;6.70;;
795;SDS011;381;48.770;9.188;2023-08-24T06:12:59;7.30;;;6.70;;
795;SDS011;381;48.770;9.188;2023-08-24T06:18:04;8.60;;;5.90;;
795;SDS011;381;48.770;9.188;2023-08-24T06:23:06;6.80;;;6.10;;
795;SDS011;381;48.770;9.188;2023-08-24T06:28:10;6.77;;;6.27;;
795;SDS011;381;48.770;9.188;2023-08-24T06:33:16;7.13;;;5.60;;
795;SDS011;381;48.770;9.188;2023-08-24T06:38:18;7.60;;;6.90;;
795;SDS011;381;48.770;9.188;2023-08-24T06:43:20;6.40;;;6.00;;
795;SDS011;381;48.770;9.188;2023-08-24T06:48:24;7.63;;;6.67;;
795;SDS011;381;48.770;9.188;2023-08-24T06:53:26;6.30;;;5.87;;
795;SDS011;381;48.770;9.188;2023-08-24T06:58:28;5.80;;;5.20;;
795;SDS011;381;48.770;9.188;2023-08-24T07:03:31;8.30;;;7.53;;
795;SDS011;381;48.770;9.188;2023-08-24T07:08:34;8.23;;;7.43;;
795;SDS011;381;48.770;9.188;2023-08-24T07:13:36;7.83;;;7.20;;
795;SDS011;381;48.770;9.188;2023-08-24T07:18:39;7.97;;;7.37;;
795;SDS011;381;48.770;9.188;2023-08-24T07:23:41;8.30;;;6.90;;
795;SDS011;381;48.770;9.188;2023-08-24T07:28:44;10.43;;;7.37;;
795;SDS011;381;48.770;9.188;2023-08-24T07:33:47;7.80;;;7.10;;
795;SDS011;381;48.770;9.188;2023-08-24T07:38:50;8.07;;;7.37;;
795;SDS011;381;48.770;9.188;2023-08-24T07:43:52;10.33;;;7.93;;
795;SDS011;381;48.770;9.188;2023-08-24T07:48:55;9.20;;;6.60;;
795;SDS011;381;48.770;9.188;2023-08-24T07:53:57;8.83;;;8.13;;
795;SDS011;381;48.770;9.188;2023-08-24T07:58:59;8.83;;;8.03;;
795;SDS011;381;48.770;9.188;2023-08-24T08:04:03;7.43;;;6.80;;
795;SDS011;381;48.770;9.188;2023-08-24T08:09:05;7.40;;;6.70;;
795;SDS011;381;48.770;9.188;2023-08-24T08:14:08;7.93;;;6.27;;
795;SDS011;381;48.770;9.188;2023-08-24T08:19:11;7.57;;;5.67;;
795;SDS011;381;48.770;9.188;2023-08-24T08:24:13;9.80;;;7.17;;
795;SDS011;381;48.770;9.188;2023-08-24T08:29:15;5.90;;;5.40;;
795;SDS011;381;48.770;9.188;2023-08-24T08:34:19;5.63;;;5.23;;
795;SDS011;381;48.770;9.188;2023-08-24T08:39:21;6.70;;;6.10;;
795;SDS011;381;48.770;9.188;2023-08-24T08:44:23;6.70;;;6.10;;
795;SDS011;381;48.770;9.188;2023-08-24T08:49:31;6.60;;;6.10;;
795;SDS011;381;48.770;9.188;2023-08-24T08:54:35;6.47;;;5.93;;
795;SDS011;381;48.770;9.188;2023-08-24T08:59:38;5.70;;;5.20;;
795;SDS011;381;48.770;9.188;2023-08-24T09:04:41;7.23;;;6.53;;
795;SDS011;381;48.770;9.188;2023-08-24T09:09:46;6.80;;;5.90;;
795;SDS011;381;48.770;9.188;2023-08-24T09:14:48;6.20;;;5.70;;
795;SDS011;381;48.770;9.188;2023-08-24T09:19:53;6.70;;;6.10;;
795;SDS011;381;48.770;9.188;2023-08-24T09:24:59;8.13;;;6.13;;
795;SDS011;381;48.770;9.188;2023-08-24T09:30:04;6.90;;;5.73;;
795;SDS011;381;48.770;9.188;2023-08-24T09:35:09;8.80;;;6.90;;
795;SDS011;381;48.770;9.188;2023-08-24T09:40:11;7.03;;;6.53;;
795;SDS011;381;48.770;9.188;2023-08-24T09:45:13;6.50;;;5.90;;
795;SDS011;381;48.770;9.188;2023-08-24T09:50:17;9.27;;;6.43;;
795;SDS011;381;48.770;9.188;2023-08-24T09:55:20;6.27;;;5.77;;
795;SDS011;381;48.770;9.188;2023-08-24T10:00:23;6.60;;;6.00;;
795;SDS011;381;48.770;9.188;2023-08-24T10:05:28;9.10;;;7.23;;
795;SDS011;381;48.770;9.188;2023-08-24T10:10:32;6.40;;;5.80;;
795;SDS011;381;48.770;9.188;2023-08-24T10:15:36;7.30;;;6.60;;
795;SDS011;381;48.770;9.188;2023-08-24T10:20:48;6.70;;;6.20;;
795;SDS011;381;48.770;9.188;2023-08-24T10:25:50;6.10;;;5.60;;
795;SDS011;381;48.770;9.188;2023-08-24T10:30:53;7.47;;;6.77;;
795;SDS011;381;48.770;9.188;2023-08-24T10:35:58;8.53;;;6.30;;
795;SDS011;381;48.770;9.188;2023-08-24T10:41:01;6.50;;;6.00;;
795;SDS011;381;48.770;9.188;2023-08-24T10:46:10;7.70;;;7.00;;
795;SDS011;381;48.770;9.188;2023-08-24T10:51:18;7.27;;;6.63;;
795;SDS011;381;48.770;9.188;2023-08-24T10:56:35;6.93;;;6.40;;
795;SDS011;381;48.770;9.188;2023-08-24T11:01:39;8.00;;;7.30;;
795;SDS011;381;48.770;9.188;2023-08-24T11:06:53;9.13;;;8.03;;
795;SDS011;381;48.770;9.188;2023-08-24T11:11:56;7.50;;;6.90;;
795;SDS011;381;48.770;9.188;2023-08-24T11:17:00;8.03;;;7.13;;
795;SDS011;381;48.770;9.188;2023-08-24T11:22:19;9.30;;;8.50;;
795;SDS011;381;48.770;9.188;2023-08-24T11:27:22;8.27;;;7.57;;
795;SDS011;381;48.770;9.188;2023-08-24T11:32:25;9.03;;;7.43;;
795;SDS011;381;48.770;9.188;2023-08-24T11:37:28;7.93;;;7.33;;
795;SDS011;381;48.770;9.188;2023-08-24T11:42:35;7.80;;;6.70;;
795;SDS011;381;48.770;9.188;2023-08-24T11:47:37;7.30;;;6.70;;
795;SDS011;381;48.770;9.188;2023-08-24T11:52:41;8.40;;;7.60;;
795;SDS011;381;48.770;9.188;2023-08-24T11:57:43;8.30;;;7.07;;
795;SDS011;381;48.770;9.188;2023-08-24T12:02:45;7.50;;;6.83;;
795;SDS011;381;48.770;9.188;2023-08-24T12:07:49;7.90;;;7.30;;
795;SDS011;381;48.770;9.188;2023-08-24T12:13:00;10.53;;;7.63;;
795;SDS011;381;48.770;9.188;2023-08-24T12:18:07;8.00;;;7.20;;
795;SDS011;381;48.770;9.188;2023-08-24T12:23:11;8.30;;;7.60;;
795;SDS011;381;48.770;9.188;2023-08-24T12:28:14;8.13;;;6.70;;
795;SDS011;381;48.770;9.188;2023-08-24T12:33:26;8.10;;;7.40;;
795;SDS011;381;48.770;9.188;2023-08-24T12:38:31;8.13;;;7.20;;
795;SDS011;381;48.770;9.188;2023-08-24T12:43:35;7.93;;;7.33;;
795;SDS011;381;48.770;9.188;2023-08-24T12:48:37;7.97;;;7.17;;
795;SDS011;381;48.770;9.188;2023-08-24T12:53:41;8.30;;;7.50;;
795;SDS011;381;48.770;9.188;2023-08-24T12:58:43;8.83;;;7.90;;
795;SDS011;381;48.770;9.188;2023-08-24T13:03:45;6.80;;;6.30;;
795;SDS011;381;48.770;9.188;2023-08-24T13:08:48;7.00;;;6.30;;
795;SDS011;381;48.770;9.188;2023-08-24T13:13:51;11.57;;;6.63;;
795;SDS011;381;48.770;9.188;2023-08-24T13:18:53;7.07;;;6.57;;
795;SDS011;381;48.770;9.188;2023-08-24T13:23:56;8.00;;;7.20;;
795;SDS011;381;48.770;9.188;2023-08-24T13:28:58;6.60;;;6.00;;
795;SDS011;381;48.770;9.188;2023-08-24T13:34:01;8.47;;;7.67;;
795;SDS011;381;48.770;9.188;2023-08-24T13:39:06;8.40;;;7.60;;
795;SDS011;381;48.770;9.188;2023-08-24T13:44:08;7.77;;;6.97;;
795;SDS011;381;48.770;9.188;2023-08-24T13:49:10;8.53;;;6.63;;
795;SDS011;381;48.770;9.188;2023-08-24T13:54:14;12.77;;;6.37;;
795;SDS011;381;48.770;9.188;2023-08-24T13:59:17;7.30;;;6.60;;
795;SDS011;381;48.770;9.188;2023-08-24T14:04:19;7.87;;;6.13;;
795;SDS011;381;48.770;9.188;2023-08-24T14:09:22;7.03;;;6.33;;
795;SDS011;381;48.770;9.188;2023-08-24T14:14:24;7.80;;;6.90;;
795;SDS011;381;48.770;9.188;2023-08-24T14:19:26;7.03;;;6.33;;
795;SDS011;381;48.770;9.188;2023-08-24T14:24:30;6.23;;;5.63;;
795;SDS011;381;48.770;9.188;2023-08-24T14:29:35;6.77;;;5.67;;
795;SDS011;381;48.770;9.188;2023-08-24T14:34:37;7.33;;;4.73;;
795;SDS011;381;48.770;9.188;2023-08-24T14:39:40;6.00;;;4.93;;
795;SDS011;381;48.770;9.188;2023-08-24T14:44:42;8.53;;;5.63;;
795;SDS011;381;48.770;9.188;2023-08-24T14:49:44;9.20;;;5.60;;
795;SDS011;381;48.770;9.188;2023-08-24T14:54:48;10.20;;;5.67;;
795;SDS011;381;48.770;9.188;2023-08-24T14:59:50;5.90;;;5.43;;
795;SDS011;381;48.770;9.188;2023-08-24T15:04:52;9.17;;;6.77;;
795;SDS011;381;48.770;9.188;2023-08-24T15:09:55;10.30;;;7.27;;
795;SDS011;381;48.770;9.188;2023-08-24T15:14:58;6.10;;;5.13;;
795;SDS011;381;48.770;9.188;2023-08-24T15:20:02;7.30;;;4.20;;
795;SDS011;381;48.770;9.188;2023-08-24T15:25:07;4.13;;;3.60;;
795;SDS011;381;48.770;9.188;2023-08-24T15:30:10;4.97;;;4.33;;
795;SDS011;381;48.770;9.188;2023-08-24T15:35:12;4.50;;;4.10;;
795;SDS011;381;48.770;9.188;2023-08-24T15:40:16;4.23;;;3.93;;
795;SDS011;381;48.770;9.188;2023-08-24T15:45:18;5.10;;;4.60;;
795;SDS011;381;48.770;9.188;2023-08-24T15:50:20;6.10;;;4.47;;
795;SDS011;381;48.770;9.188;2023-08-24T15:55:23;4.13;;;3.70;;
795;SDS011;381;48.770;9.188;2023-08-24T16:00:26;7.20;;;3.40;;
795;SDS011;381;48.770;9.188;2023-08-24T16:05:28;4.17;;;3.67;;
795;SDS011;381;48.770;9.188;2023-08-24T16:10:34;4.50;;;3.20;;
795;SDS011;381;48.770;9.188;2023-08-24T16:15:37;5.07;;;3.80;;
795;SDS011;381;48.770;9.188;2023-08-24T16:20:39;3.97;;;3.67;;
795;SDS011;381;48.770;9.188;2023-08-24T16:25:43;9.13;;;4.17;;
795;SDS011;381;48.770;9.188;2023-08-24T16:30:46;3.70;;;3.40;;
795;SDS011;381;48.770;9.188;2023-08-24T16:35:48;4.50;;;4.10;;
795;SDS011;381;48.770;9.188;2023-08-24T16:40:52;4.13;;;3.80;;
795;SDS011;381;48.770;9.188;2023-08-24T16:45:54;5.27;;;4.43;;
795;SDS011;381;48.770;9.188;2023-08-24T16:50:56;4.90;;;4.60;;
795;SDS011;381;48.770;9.188;2023-08-24T16:55:59;6.77;;;4.00;;
795;SDS011;381;48.770;9.188;2023-08-24T17:01:04;3.70;;;3.40;;
795;SDS011;381;48.770;9.188;2023-08-24T17:06:07;5.93;;;4.10;;
795;SDS011;381;48.770;9.188;2023-08-24T17:11:10;4.63;;;4.23;;
795;SDS011;381;48.770;9.188;2023-08-24T17:16:13;4.37;;;4.07;;
795;SDS011;381;48.770;9.188;2023-08-24T17:21:15;4.70;;;4.20;;
795;SDS011;381;48.770;9.188;2023-08-24T17:26:18;4.93;;;4.20;;
795;SDS011;381;48.770;9.188;2023-08-24T17:31:21;6.60;;;4.70;;
795;SDS011;381;48.770;9.188;2023-08-24T17:36:23;4.80;;;4.40;;
795;SDS011;381;48.770;9.188;2023-08-24T17:41:27;4.73;;;4.30;;
795;SDS011;381;48.770;9.188;2023-08-24T17:46:29;4.50;;;3.90;;
795;SDS011;381;48.770;9.188;2023-08-24T17:51:31;4.83;;;2.90;;
795;SDS011;381;48.770;9.188;2023-08-24T17:56:34;4.77;;;3.50;;
795;SDS011;381;48.770;9.188;2023-08-24T18:01:36;3.73;;;3.43;;
795;SDS011;381;48.770;9.188;2023-08-24T18:06:39;3.50;;;3.20;;
795;SDS011;381;48.770;9.188;2023-08-24T18:11:43;4.50;;;3.63;;
795;SDS011;381;48.770;9.188;2023-08-24T18:16:45;5.17;;;4.30;;
795;SDS011;381;48.770;9.188;2023-08-24T18:21:47;9.10;;;4.40;;
795;SDS011;381;48.770;9.188;2023-08-24T18:26:50;6.90;;;4.53;;
795;SDS011;381;48.770;9.188;2023-08-24T18:31:54;7.00;;;4.77;;
795;SDS011;381;48.770;9.188;2023-08-24T18:36:56;6.27;;;5.77;;
795;SDS011;381;48.770;9.188;2023-08-24T18:42:00;5.27;;;4.87;;
795;SDS011;381;48.770;9.188;2023-08-24T18:47:04;7.20;;;6.00;;
795;SDS011;381;48.770;9.188;2023-08-24T18:52:06;6.17;;;5.77;;
795;SDS011;381;48.770;9.188;2023-08-24T18:57:10;8.60;;;7.73;;
795;SDS011;381;48.770;9.188;2023-08-24T19:02:12;6.73;;;6.23;;
795;SDS011;381;48.770;9.188;2023-08-24T19:07:18;8.37;;;7.53;;
795;SDS011;381;48.770;9.188;2023-08-24T19:12:21;9.43;;;8.47;;
795;SDS011;381;48.770;9.188;2023-08-24T19:17:23;15.60;;;11.50;;
795;SDS011;381;48.770;9.188;2023-08-24T19:22:26;20.73;;;18.77;;
795;SDS011;381;48.770;9.188;2023-08-24T19:27:29;18.83;;;17.03;;
795;SDS011;381;48.770;9.188;2023-08-24T19:32:31;18.60;;;17.27;;
795;SDS011;381;48.770;9.188;2023-08-24T19:37:35;18.33;;;17.03;;
795;SDS011;381;48.770;9.188;2023-08-24T19:42:38;17.17;;;15.63;;
795;SDS011;381;48.770;9.188;2023-08-24T19:47:40;15.87;;;14.20;;
795;SDS011;381;48.770;9.188;2023-08-24T19:52:42;13.80;;;12.73;;
795;SDS011;381;48.770;9.188;2023-08-24T19:57:46;14.53;;;13.43;;
795;SDS011;381;48.770;9.188;2023-08-24T20:02:49;13.57;;;11.57;;
795;SDS011;381;48.770;9.188;2023-08-24T20:07:54;13.43;;;12.53;;
795;SDS011;381;48.770;9.188;2023-08-24T20:12:57;13.17;;;12.27;;
795;SDS011;381;48.770;9.188;2023-08-24T20:17:59;13.93;;;12.90;;
795;SDS011;381;48.770;9.188;2023-08-24T20:23:01;16.10;;;14.90;;
795;SDS011;381;48.770;9.188;2023-08-24T20:28:05;17.50;;;15.93;;
795;SDS011;381;48.770;9.188;2023-08-24T20:33:07;15.40;;;14.30;;
795;SDS011;381;48.770;9.188;2023-08-24T20:38:09;16.27;;;14.87;;
795;SDS011;381;48.770;9.188;2023-08-24T20:43:13;15.67;;;14.33;;
795;SDS011;381;48.770;9.188;2023-08-24T20:48:15;14.00;;;13.00;;
795;SDS011;381;48.770;9.188;2023-08-24T20:53:17;12.80;;;12.00;;
795;SDS011;381;48.770;9.188;2023-08-24T20:58:20;12.93;;;12.03;;
795;SDS011;381;48.770;9.188;2023-08-24T21:03:23;10.40;;;9.50;;
795;SDS011;381;48.770;9.188;2023-08-24T21:08:25;11.17;;;10.37;;
795;SDS011;381;48.770;9.188;2023-08-24T21:13:28;10.00;;;9.30;;
795;SDS011;381;48.770;9.188;2023-08-24T21:18:30;10.50;;;9.47;;
795;SDS011;381;48.770;9.188;2023-08-24T21:23:33;9.10;;;8.40;;
795;SDS011;381;48.770;9.188;2023-08-24T21:28:36;8.97;;;8.50;;
795;SDS011;381;48.770;9.188;2023-08-24T21:33:38;8.00;;;7.57;;
795;SDS011;381;48.770;9.188;2023-08-24T21:38:40;8.70;;;8.10;;
795;SDS011;381;48.770;9.188;2023-08-24T21:43:44;8.30;;;7.80;;
795;SDS011;381;48.770;9.188;2023-08-24T21:48:46;7.40;;;7.00;;
795;SDS011;381;48.770;9.188;2023-08-24T21:53:48;7.03;;;6.73;;
795;SDS011;381;48.770;9.188;2023-08-24T21:58:51;6.77;;;6.27;;
795;SDS011;381;48.770;9.188;2023-08-24T22:03:53;6.60;;;6.00;;
795;SDS011;381;48.770;9.188;2023-08-24T22:08:55;6.07;;;5.77;;
795;SDS011;381;48.770;9.188;2023-08-24T22:13:58;7.00;;;6.30;;
795;SDS011;381;48.770;9.188;2023-08-24T22:19:01;6.87;;;6.37;;
795;SDS011;381;48.770;9.188;2023-08-24T22:24:03;6.50;;;6.20;;
795;SDS011;381;48.770;9.188;2023-08-24T22:29:07;5.93;;;5.53;;
795;SDS011;381;48.770;9.188;2023-08-24T22:34:09;5.00;;;4.80;;
795;SDS011;381;48.770;9.188;2023-08-24T22:39:11;5.73;;;5.43;;
795;SDS011;381;48.770;9.188;2023-08-24T22:44:14;5.37;;;5.07;;
795;SDS011;381;48.770;9.188;2023-08-24T22:49:17;5.37;;;4.97;;
795;SDS011;381;48.770;9.188;2023-08-24T22:54:19;5.00;;;4.70;;
795;SDS011;381;48.770;9.188;2023-08-24T22:59:22;4.50;;;4.30;;
795;SDS011;381;48.770;9.188;2023-08-24T23:04:24;5.40;;;5.00;;
795;SDS011;381;48.770;9.188;2023-08-24T23:09:26;3.87;;;3.67;;
795;SDS011;381;48.770;9.188;2023-08-24T23:14:30;5.03;;;4.67;;
795;SDS011;381;48.770;9.188;2023-08-24T23:19:35;4.87;;;3.70;;
795;SDS011;381;48.770;9.188;2023-08-24T23:24:37;3.67;;;3.47;;
795;SDS011;381;48.770;9.188;2023-08-24T23:29:41;4.13;;;3.83;;
795;SDS011;381;48.770;9.188;2023-08-24T23:34:43;3.90;;;3.70;;
795;SDS011;381;48.770;9.188;2023-08-24T23:39:45;4.20;;;3.90;;
795;SDS011;381;48.770;9.188;2023-08-24T23:44:49;7.40;;;4.10;;
795;SDS011;381;48.770;9.188;2023-08-24T23:49:51;4.03;;;3.73;;
795;SDS011;381;48.770;9.188;2023-08-24T23:54:54;3.70;;;3.50;;
795;SDS011;381;48.770;9.188;2023-08-24T23:59:57;3.70;;;3.47;;
